createdAt,value
2022-10-19T00:00:46.384Z,11.3
2022-10-19T00:01:50.536Z,11.3
2022-10-19T00:02:53.251Z,11.3
2022-10-19T00:03:55.874Z,11.4
2022-10-19T00:04:58.415Z,11.4
2022-10-19T00:06:01.566Z,11.3
2022-10-19T00:07:04.281Z,11.3
2022-10-19T00:08:06.870Z,11.3
2022-10-19T00:09:09.386Z,11.3
2022-10-19T00:10:12.214Z,11.3
2022-10-19T00:11:14.654Z,11.3
2022-10-19T00:12:17.087Z,11.3
2022-10-19T00:13:20.815Z,11.3
2022-10-19T00:14:23.344Z,11.3
2022-10-19T00:15:26.781Z,11.3
2022-10-19T00:16:30.165Z,11.3
2022-10-19T00:17:36.012Z,11.3
2022-10-19T00:18:39.198Z,11.2
2022-10-19T00:19:41.989Z,11.2
2022-10-19T00:20:44.697Z,11.2
2022-10-19T00:21:47.907Z,11.2
2022-10-19T00:22:50.722Z,11.2
2022-10-19T00:23:54.067Z,11.2
2022-10-19T00:24:57.419Z,11.3
2022-10-19T00:26:00.481Z,11.3
2022-10-19T00:27:03.826Z,11.2
2022-10-19T00:28:07.604Z,11.3
2022-10-19T00:29:11.453Z,11.3
2022-10-19T00:30:14.935Z,11.3
2022-10-19T00:31:18.100Z,11.3
2022-10-19T00:32:21.221Z,11.3
2022-10-19T00:33:25.367Z,11.3
2022-10-19T00:34:28.180Z,11.3
2022-10-19T00:35:31.692Z,11.2
2022-10-19T00:36:34.404Z,11.3
2022-10-19T00:37:37.738Z,11.3
2022-10-19T00:38:40.809Z,11.3
2022-10-19T00:39:43.771Z,11.3
2022-10-19T00:40:46.511Z,11.3
2022-10-19T00:41:49.492Z,11.3
2022-10-19T00:42:52.431Z,11.3
2022-10-19T00:43:55.296Z,11.2
2022-10-19T00:44:57.806Z,11.2
2022-10-19T00:46:01.338Z,11.2
2022-10-19T00:47:04.721Z,11.2
2022-10-19T00:48:07.707Z,11.1
2022-10-19T00:49:12.678Z,11.2
2022-10-19T00:50:16.174Z,11.2
2022-10-19T00:51:18.770Z,11.2
2022-10-19T00:52:21.868Z,11.2
2022-10-19T00:53:24.384Z,11.2
2022-10-19T00:54:27.578Z,11.2
2022-10-19T00:55:30.448Z,11.2
2022-10-19T00:56:33.398Z,11.2
2022-10-19T00:57:36.229Z,11.2
2022-10-19T00:58:39.048Z,11.2
2022-10-19T00:59:42.120Z,11.2
2022-10-19T01:00:44.777Z,11.2
2022-10-19T01:01:47.375Z,11.2
2022-10-19T01:02:50.828Z,11.2
2022-10-19T01:03:54.138Z,11.2
2022-10-19T01:04:57.933Z,11.2
2022-10-19T01:06:01.664Z,11.2
2022-10-19T01:07:04.375Z,11.2
2022-10-19T01:08:06.689Z,11.2
2022-10-19T01:09:09.769Z,11.2
2022-10-19T01:10:12.902Z,11.2
2022-10-19T01:11:16.697Z,11.2
2022-10-19T01:12:19.415Z,11.2
2022-10-19T01:13:22.766Z,11.1
2022-10-19T01:14:25.938Z,11.2
2022-10-19T01:15:29.285Z,11.1
2022-10-19T01:16:32.147Z,11.2
2022-10-19T01:17:36.638Z,11.1
2022-10-19T01:18:39.166Z,11.2
2022-10-19T01:19:42.370Z,11.1
2022-10-19T01:20:46.419Z,11.1
2022-10-19T01:21:49.816Z,11.2
2022-10-19T01:22:52.984Z,11.2
2022-10-19T01:23:55.499Z,11.2
2022-10-19T01:24:58.497Z,11.1
2022-10-19T01:26:01.285Z,11.1
2022-10-19T01:27:04.652Z,11.1
2022-10-19T01:28:07.247Z,11.1
2022-10-19T01:29:10.361Z,11.1
2022-10-19T01:30:13.669Z,11.1
2022-10-19T01:31:16.341Z,11.1
2022-10-19T01:32:18.775Z,11.1
2022-10-19T01:33:22.001Z,11.1
2022-10-19T01:34:24.521Z,11.1
2022-10-19T01:35:27.831Z,11.1
2022-10-19T01:36:32.001Z,11.1
2022-10-19T01:37:37.037Z,11.1
2022-10-19T01:38:39.941Z,11
2022-10-19T01:39:50.732Z,11
2022-10-19T01:40:54.442Z,11
2022-10-19T01:41:57.971Z,11
2022-10-19T01:43:01.158Z,11
2022-10-19T01:44:03.958Z,11
2022-10-19T01:45:07.021Z,10.9
2022-10-19T01:46:10.371Z,10.9
2022-10-19T01:47:13.909Z,10.9
2022-10-19T01:48:16.918Z,10.9
2022-10-19T01:49:19.714Z,10.9
2022-10-19T01:50:23.052Z,10.9
2022-10-19T01:51:26.167Z,10.8
2022-10-19T01:52:30.035Z,10.8
2022-10-19T01:53:33.567Z,10.9
2022-10-19T01:54:36.081Z,10.8
2022-10-19T01:55:38.679Z,10.8
2022-10-19T01:56:41.745Z,10.8
2022-10-19T01:57:44.449Z,10.8
2022-10-19T01:58:47.032Z,10.9
2022-10-19T01:59:50.368Z,10.9
2022-10-19T02:00:53.822Z,10.9
2022-10-19T02:01:57.434Z,10.9
2022-10-19T02:03:00.230Z,10.9
2022-10-19T02:04:03.385Z,10.9
2022-10-19T02:05:06.165Z,10.9
2022-10-19T02:06:09.311Z,10.9
2022-10-19T02:07:11.312Z,10.9
2022-10-19T02:08:15.443Z,10.9
2022-10-19T02:09:17.984Z,10.9
2022-10-19T02:10:21.150Z,10.9
2022-10-19T02:11:24.153Z,11
2022-10-19T02:12:27.580Z,11
2022-10-19T02:13:30.997Z,10.9
2022-10-19T02:14:34.078Z,10.9
2022-10-19T02:15:37.672Z,10.9
2022-10-19T02:16:41.014Z,11
2022-10-19T02:17:44.276Z,10.9
2022-10-19T02:18:47.064Z,11
2022-10-19T02:19:50.134Z,11
2022-10-19T02:20:52.365Z,11
2022-10-19T02:21:55.724Z,11
2022-10-19T02:22:58.601Z,11
2022-10-19T02:24:02.684Z,11.1
2022-10-19T02:25:06.152Z,11.1
2022-10-19T02:26:09.220Z,11.1
2022-10-19T02:27:12.092Z,11.1
2022-10-19T02:28:15.894Z,11.1
2022-10-19T02:29:19.174Z,11.1
2022-10-19T02:30:21.869Z,11.1
2022-10-19T02:31:24.453Z,11.1
2022-10-19T02:32:27.231Z,11.1
2022-10-19T02:33:29.574Z,11
2022-10-19T02:34:32.554Z,11
2022-10-19T02:35:35.879Z,11
2022-10-19T02:36:38.966Z,11
2022-10-19T02:37:41.642Z,11
2022-10-19T02:38:44.000Z,11.1
2022-10-19T02:39:48.077Z,11.1
2022-10-19T02:40:51.555Z,11.1
2022-10-19T02:41:54.341Z,11.1
2022-10-19T02:42:56.895Z,11.2
2022-10-19T02:44:00.077Z,11.2
2022-10-19T02:45:02.591Z,11.1
2022-10-19T02:46:05.935Z,11.2
2022-10-19T02:47:08.805Z,11.2
2022-10-19T02:48:11.523Z,11.2
2022-10-19T02:49:14.605Z,11.1
2022-10-19T02:50:17.480Z,11.1
2022-10-19T02:51:20.358Z,11.1
2022-10-19T02:52:23.812Z,11.1
2022-10-19T02:53:26.802Z,11.1
2022-10-19T02:54:29.553Z,11.1
2022-10-19T02:55:33.982Z,11.1
2022-10-19T02:56:37.320Z,11.1
2022-10-19T02:57:40.287Z,11.1
2022-10-19T02:58:43.093Z,11.1
2022-10-19T02:59:46.513Z,11.1
2022-10-19T03:00:50.541Z,11.1
2022-10-19T03:01:54.093Z,11.1
2022-10-19T03:02:57.744Z,11.1
2022-10-19T03:04:00.537Z,11.1
2022-10-19T03:05:04.069Z,11.1
2022-10-19T03:06:07.240Z,11.1
2022-10-19T03:07:10.737Z,11.1
2022-10-19T03:08:13.720Z,11.1
2022-10-19T03:09:16.815Z,11.1
2022-10-19T03:10:19.635Z,11.1
2022-10-19T03:11:23.697Z,11.2
2022-10-19T03:12:26.237Z,11.2
2022-10-19T03:13:29.055Z,11.2
2022-10-19T03:14:32.504Z,11.2
2022-10-19T03:15:36.173Z,11.2
2022-10-19T03:16:38.774Z,11.2
2022-10-19T03:17:41.272Z,11.1
2022-10-19T03:18:44.045Z,11.1
2022-10-19T03:19:47.025Z,11.1
2022-10-19T03:20:49.533Z,11.1
2022-10-19T03:21:52.605Z,11.1
2022-10-19T03:22:56.159Z,11.1
2022-10-19T03:23:58.761Z,11.1
2022-10-19T03:25:01.352Z,11.1
2022-10-19T03:26:06.516Z,11.1
2022-10-19T03:27:15.368Z,11.1
2022-10-19T03:28:18.824Z,11.1
2022-10-19T03:29:21.214Z,11.2
2022-10-19T03:30:24.201Z,11.2
2022-10-19T03:31:26.800Z,11.2
2022-10-19T03:32:29.252Z,11.2
2022-10-19T03:33:31.908Z,11.2
2022-10-19T03:34:34.628Z,11.2
2022-10-19T03:35:38.107Z,11.2
2022-10-19T03:36:40.549Z,11.2
2022-10-19T03:37:44.281Z,11.2
2022-10-19T03:38:47.155Z,11.2
2022-10-19T03:39:51.151Z,11.2
2022-10-19T03:40:54.877Z,11.2
2022-10-19T03:41:57.985Z,11.2
2022-10-19T03:43:01.777Z,11.2
2022-10-19T03:44:04.652Z,11.2
2022-10-19T03:45:07.262Z,11.2
2022-10-19T03:46:10.070Z,11.2
2022-10-19T03:47:13.001Z,11.3
2022-10-19T03:48:16.061Z,11.2
2022-10-19T03:49:18.572Z,11.2
2022-10-19T03:50:21.556Z,11.2
2022-10-19T03:51:23.775Z,11.2
2022-10-19T03:52:26.542Z,11.2
2022-10-19T03:53:33.007Z,11.3
2022-10-19T03:54:35.836Z,11.3
2022-10-19T03:55:38.541Z,11.3
2022-10-19T03:56:41.216Z,11.3
2022-10-19T03:57:44.054Z,11.3
2022-10-19T03:58:47.844Z,11.3
2022-10-19T03:59:50.433Z,11.3
2022-10-19T04:00:53.765Z,11.3
2022-10-19T04:01:56.587Z,11.3
2022-10-19T04:02:59.646Z,11.3
2022-10-19T04:04:03.090Z,11.3
2022-10-19T04:05:05.944Z,11.3
2022-10-19T04:06:09.396Z,11.3
2022-10-19T04:07:12.188Z,11.3
2022-10-19T04:08:15.461Z,11.3
2022-10-19T04:09:18.052Z,11.3
2022-10-19T04:10:21.155Z,11.3
2022-10-19T04:11:23.961Z,11.2
2022-10-19T04:12:27.299Z,11.2
2022-10-19T04:13:30.055Z,11.2
2022-10-19T04:14:58.915Z,11.2
2022-10-19T04:16:01.639Z,11.2
2022-10-19T04:17:04.472Z,11.2
2022-10-19T04:18:07.542Z,11.2
2022-10-19T04:19:10.362Z,11.2
2022-10-19T04:20:13.442Z,11.2
2022-10-19T04:21:16.333Z,11.2
2022-10-19T04:22:19.483Z,11.3
2022-10-19T04:23:22.555Z,11.2
2022-10-19T04:24:25.487Z,11.2
2022-10-19T04:25:28.655Z,11.2
2022-10-19T04:26:31.645Z,11.2
2022-10-19T04:27:36.071Z,11.2
2022-10-19T04:28:39.705Z,11.1
2022-10-19T04:29:43.662Z,11.2
2022-10-19T04:30:47.286Z,11.2
2022-10-19T04:31:50.266Z,11.2
2022-10-19T04:32:53.405Z,11.2
2022-10-19T04:33:56.126Z,11.2
2022-10-19T04:34:59.481Z,11.2
2022-10-19T04:36:02.826Z,11.2
2022-10-19T04:37:05.534Z,11.2
2022-10-19T04:38:08.693Z,11.2
2022-10-19T04:39:12.149Z,11.2
2022-10-19T04:40:16.842Z,11.3
2022-10-19T04:41:20.303Z,11.3
2022-10-19T04:42:23.361Z,11.2
2022-10-19T04:43:25.519Z,11.2
2022-10-19T04:44:28.105Z,11.3
2022-10-19T04:45:31.895Z,11.2
2022-10-19T04:46:34.724Z,11.2
2022-10-19T04:47:38.575Z,11.2
2022-10-19T04:48:41.402Z,11.2
2022-10-19T04:49:43.571Z,11.2
2022-10-19T04:50:46.923Z,11.2
2022-10-19T04:51:49.909Z,11.2
2022-10-19T04:52:52.345Z,11.2
2022-10-19T04:54:01.380Z,11.3
2022-10-19T04:55:03.898Z,11.3
2022-10-19T04:56:07.640Z,11.3
2022-10-19T04:57:11.359Z,11.3
2022-10-19T04:58:14.439Z,11.3
2022-10-19T04:59:18.128Z,11.3
2022-10-19T05:00:21.182Z,11.3
2022-10-19T05:01:25.492Z,11.3
2022-10-19T05:02:28.777Z,11.3
2022-10-19T05:03:31.286Z,11.3
2022-10-19T05:04:34.344Z,11.3
2022-10-19T05:05:37.328Z,11.3
2022-10-19T05:06:40.424Z,11.2
2022-10-19T05:07:43.409Z,11.2
2022-10-19T05:08:46.200Z,11.2
2022-10-19T05:09:49.303Z,11.2
2022-10-19T05:10:52.376Z,11.2
2022-10-19T05:11:55.719Z,11.1
2022-10-19T05:12:59.141Z,11.1
2022-10-19T05:14:01.681Z,11.1
2022-10-19T05:15:04.799Z,11.1
2022-10-19T05:16:08.269Z,11.1
2022-10-19T05:17:12.299Z,11.1
2022-10-19T05:18:15.181Z,11.1
2022-10-19T05:19:18.359Z,11.1
2022-10-19T05:20:22.160Z,11.1
2022-10-19T05:21:24.681Z,11
2022-10-19T05:22:27.676Z,11.1
2022-10-19T05:24:33.131Z,11.1
2022-10-19T05:25:36.128Z,11.1
2022-10-19T05:26:39.286Z,11.1
2022-10-19T05:27:42.369Z,11.1
2022-10-19T05:28:45.982Z,11.1
2022-10-19T05:29:49.226Z,11.1
2022-10-19T05:30:51.458Z,11.1
2022-10-19T05:31:54.880Z,11.1
2022-10-19T05:32:59.011Z,11.1
2022-10-19T05:34:02.853Z,11.2
2022-10-19T05:35:05.823Z,11.2
2022-10-19T05:36:09.259Z,11.2
2022-10-19T05:37:12.628Z,11.2
2022-10-19T05:38:15.163Z,11.2
2022-10-19T05:39:17.956Z,11.2
2022-10-19T05:40:20.729Z,11.3
2022-10-19T05:41:23.433Z,11.3
2022-10-19T05:42:26.781Z,11.3
2022-10-19T05:43:30.204Z,11.3
2022-10-19T05:44:33.506Z,11.2
2022-10-19T05:45:36.203Z,11.2
2022-10-19T05:46:39.273Z,11.2
2022-10-19T05:47:42.446Z,11.2
2022-10-19T05:48:46.678Z,11.2
2022-10-19T05:49:49.872Z,11.2
2022-10-19T05:50:52.640Z,11.2
2022-10-19T05:51:55.716Z,11.2
2022-10-19T05:52:58.966Z,11.2
2022-10-19T05:54:02.013Z,11.2
2022-10-19T05:55:04.803Z,11.2
2022-10-19T05:56:07.800Z,11.2
2022-10-19T05:57:10.801Z,11.2
2022-10-19T05:58:13.224Z,11.2
2022-10-19T05:59:15.985Z,11.2
2022-10-19T06:00:19.492Z,11.1
2022-10-19T06:01:21.730Z,11.1
2022-10-19T06:02:25.533Z,11.1
2022-10-19T06:03:28.715Z,11.1
2022-10-19T06:04:32.501Z,11.1
2022-10-19T06:05:36.206Z,11.1
2022-10-19T06:06:39.604Z,11.1
2022-10-19T06:07:43.011Z,11.1
2022-10-19T06:08:46.741Z,11.1
2022-10-19T06:09:49.862Z,11.2
2022-10-19T06:10:52.652Z,11.2
2022-10-19T06:11:55.442Z,11.2
2022-10-19T06:12:59.216Z,11.3
2022-10-19T06:14:01.263Z,11.3
2022-10-19T06:15:03.928Z,11.2
2022-10-19T06:16:07.328Z,11.2
2022-10-19T06:17:10.320Z,11.2
2022-10-19T06:18:13.685Z,11.2
2022-10-19T06:19:17.098Z,11.1
2022-10-19T06:20:20.950Z,11.1
2022-10-19T06:21:24.471Z,11.1
2022-10-19T06:22:27.555Z,11.1
2022-10-19T06:23:30.725Z,11.1
2022-10-19T06:24:33.697Z,11.1
2022-10-19T06:25:37.207Z,11
2022-10-19T06:26:40.632Z,10.9
2022-10-19T06:27:43.906Z,10.9
2022-10-19T06:28:47.014Z,10.9
2022-10-19T06:29:50.389Z,11
2022-10-19T06:30:53.101Z,11
2022-10-19T06:31:56.322Z,11
2022-10-19T06:33:00.936Z,11
2022-10-19T06:34:04.560Z,11.1
2022-10-19T06:35:08.357Z,11.1
2022-10-19T06:36:12.506Z,11.1
2022-10-19T06:37:15.396Z,11.1
2022-10-19T06:38:18.574Z,11.1
2022-10-19T06:39:21.006Z,11.1
2022-10-19T06:40:24.186Z,11.1
2022-10-19T06:41:27.108Z,11.1
2022-10-19T06:42:30.761Z,11.1
2022-10-19T06:43:33.719Z,11.1
2022-10-19T06:44:37.433Z,11.1
2022-10-19T06:45:40.495Z,11.1
2022-10-19T06:46:43.561Z,11.1
2022-10-19T06:47:50.132Z,11.1
2022-10-19T06:48:53.627Z,11.1
2022-10-19T06:49:57.244Z,11.1
2022-10-19T06:51:00.229Z,11.1
2022-10-19T06:52:04.321Z,11.1
2022-10-19T06:53:07.140Z,11.1
2022-10-19T06:54:10.211Z,11.2
2022-10-19T06:55:13.383Z,11.2
2022-10-19T06:56:16.828Z,11.1
2022-10-19T06:57:20.011Z,11.2
2022-10-19T06:58:22.835Z,11.2
2022-10-19T06:59:25.452Z,11.2
2022-10-19T07:00:28.446Z,11.3
2022-10-19T07:01:31.845Z,11.3
2022-10-19T07:02:35.199Z,11.3
2022-10-19T07:03:38.714Z,11.3
2022-10-19T07:04:42.152Z,11.3
2022-10-19T07:05:45.528Z,11.3
2022-10-19T07:06:48.842Z,11.2
2022-10-19T07:07:53.247Z,11.3
2022-10-19T07:08:56.897Z,11.3
2022-10-19T07:10:00.354Z,11.3
2022-10-19T07:11:03.437Z,11.3
2022-10-19T07:12:06.702Z,11.3
2022-10-19T07:14:13.720Z,11.4
2022-10-19T07:15:17.131Z,11.4
2022-10-19T07:16:23.165Z,11.5
2022-10-19T07:17:25.893Z,11.5
2022-10-19T07:18:29.127Z,11.5
2022-10-19T07:19:32.461Z,11.6
2022-10-19T07:20:35.231Z,11.6
2022-10-19T07:21:38.397Z,11.6
2022-10-19T07:22:42.069Z,11.7
2022-10-19T07:23:45.960Z,11.7
2022-10-19T07:24:49.074Z,11.7
2022-10-19T07:25:52.580Z,11.6
2022-10-19T07:26:55.690Z,11.7
2022-10-19T07:27:58.860Z,11.7
2022-10-19T07:29:01.846Z,11.8
2022-10-19T07:30:05.565Z,11.8
2022-10-19T07:31:09.259Z,11.8
2022-10-19T07:32:12.613Z,11.8
2022-10-19T07:34:18.416Z,11.8
2022-10-19T07:35:21.317Z,11.8
2022-10-19T07:36:23.991Z,11.9
2022-10-19T07:37:27.265Z,11.8
2022-10-19T07:38:30.205Z,11.8
2022-10-19T07:39:34.287Z,11.8
2022-10-19T07:40:37.321Z,11.9
2022-10-19T07:41:40.691Z,11.9
2022-10-19T07:42:43.788Z,12.1
2022-10-19T07:43:46.499Z,12.1
2022-10-19T07:44:50.224Z,12.2
2022-10-19T07:45:52.915Z,12.3
2022-10-19T07:46:55.913Z,12.3
2022-10-19T07:47:59.133Z,12.3
2022-10-19T07:49:02.005Z,12.3
2022-10-19T07:50:06.012Z,12.3
2022-10-19T07:51:09.152Z,12.3
2022-10-19T07:52:12.301Z,12.3
2022-10-19T07:53:15.803Z,12.4
2022-10-19T07:54:19.482Z,12.4
2022-10-19T07:55:23.690Z,12.3
2022-10-19T07:56:27.061Z,12.4
2022-10-19T07:57:30.217Z,12.4
2022-10-19T07:58:32.256Z,12.5
2022-10-19T07:59:34.788Z,12.6
2022-10-19T08:00:37.350Z,12.6
2022-10-19T08:01:40.804Z,12.7
2022-10-19T08:05:01.951Z,12.7
2022-10-19T08:06:15.194Z,13
2022-10-19T08:07:18.548Z,13
2022-10-19T08:08:21.067Z,13.1
2022-10-19T08:09:56.093Z,13.2
2022-10-19T08:10:59.836Z,13.3
2022-10-19T08:12:03.406Z,13.4
2022-10-19T08:13:06.764Z,13.4
2022-10-19T08:14:09.763Z,13.4
2022-10-19T08:15:12.362Z,13.5
2022-10-19T08:16:15.153Z,13.6
2022-10-19T08:17:19.176Z,13.8
2022-10-19T08:18:22.264Z,13.8
2022-10-19T08:19:25.785Z,13.7
2022-10-19T08:20:28.856Z,13.6
2022-10-19T08:21:32.318Z,13.6
2022-10-19T08:22:38.106Z,13.6
2022-10-19T08:23:41.094Z,13.6
2022-10-19T08:24:43.922Z,13.4
2022-10-19T08:25:47.224Z,13.4
2022-10-19T08:26:51.087Z,13.4
2022-10-19T08:27:54.848Z,13.3
2022-10-19T08:28:58.092Z,13.3
2022-10-19T08:30:01.443Z,13.2
2022-10-19T08:31:04.969Z,13.3
2022-10-19T08:32:08.697Z,13.3
2022-10-19T08:33:11.498Z,13.3
2022-10-19T08:34:14.655Z,13.3
2022-10-19T08:35:18.009Z,13.2
2022-10-19T08:36:20.542Z,13.1
2022-10-19T08:37:47.999Z,13.2
2022-10-19T08:38:52.055Z,13.2
2022-10-19T08:39:55.775Z,13.1
2022-10-19T08:40:58.698Z,13.1
2022-10-19T08:42:02.766Z,13.1
2022-10-19T08:43:05.874Z,13.1
2022-10-19T08:44:11.921Z,13.1
2022-10-19T08:45:15.360Z,13
2022-10-19T08:46:18.357Z,13
2022-10-19T08:47:25.592Z,13
2022-10-19T08:48:29.035Z,13
2022-10-19T08:49:31.901Z,13
2022-10-19T08:50:35.329Z,13
2022-10-19T08:51:39.059Z,13
2022-10-19T08:52:42.147Z,13.1
2022-10-19T08:53:45.616Z,13.2
2022-10-19T08:54:47.763Z,13.3
2022-10-19T08:55:51.153Z,13.3
2022-10-19T08:56:54.564Z,13.5
2022-10-19T08:57:58.763Z,13.6
2022-10-19T08:59:01.882Z,13.9
2022-10-19T09:00:04.399Z,14.1
2022-10-19T09:01:07.861Z,14.3
2022-10-19T09:02:10.936Z,14.5
2022-10-19T09:03:13.737Z,14.6
2022-10-19T09:04:20.773Z,14.9
2022-10-19T09:05:24.771Z,15
2022-10-19T09:06:27.928Z,15.2
2022-10-19T09:07:31.086Z,15.4
2022-10-19T09:08:35.128Z,15.6
2022-10-19T09:09:38.435Z,15.7
2022-10-19T09:10:41.248Z,15.9
2022-10-19T09:11:43.960Z,16.1
2022-10-19T09:12:47.050Z,16.3
2022-10-19T09:14:08.218Z,16.5
2022-10-19T09:15:11.067Z,16.7
2022-10-19T09:16:14.409Z,16.9
2022-10-19T09:17:17.778Z,16.8
2022-10-19T09:18:21.514Z,16.8
2022-10-19T09:19:23.944Z,16.8
2022-10-19T09:20:26.658Z,16.7
2022-10-19T09:21:48.576Z,16.6
2022-10-19T09:22:51.306Z,16.7
2022-10-19T09:23:54.098Z,16.9
2022-10-19T09:24:57.174Z,17
2022-10-19T09:26:00.146Z,17
2022-10-19T09:27:03.852Z,17.2
2022-10-19T09:28:06.151Z,17.4
2022-10-19T09:29:10.312Z,17.4
2022-10-19T09:30:13.400Z,17.5
2022-10-19T09:31:16.967Z,17.8
2022-10-19T09:32:20.034Z,18
2022-10-19T09:33:22.434Z,18.1
2022-10-19T09:34:25.792Z,18.1
2022-10-19T09:35:29.223Z,18
2022-10-19T09:36:52.247Z,17.8
2022-10-19T09:37:55.059Z,17.7
2022-10-19T09:38:57.881Z,17.6
2022-10-19T09:40:01.536Z,17.4
2022-10-19T09:41:04.955Z,17.3
2022-10-19T09:42:08.291Z,17.3
2022-10-19T09:43:11.324Z,17.5
2022-10-19T09:44:15.452Z,17.7
2022-10-19T09:45:18.465Z,17.8
2022-10-19T09:46:22.522Z,18
2022-10-19T09:47:25.324Z,18
2022-10-19T09:48:29.129Z,18.3
2022-10-19T09:49:31.804Z,18.4
2022-10-19T09:50:35.541Z,18.5
2022-10-19T09:51:38.518Z,18.7
2022-10-19T09:52:41.532Z,18.6
2022-10-19T09:53:44.244Z,18.6
2022-10-19T09:54:47.695Z,18.8
2022-10-19T09:55:49.954Z,19
2022-10-19T09:56:53.496Z,19.1
2022-10-19T09:57:56.665Z,19.1
2022-10-19T09:58:59.799Z,19.2
2022-10-19T10:00:03.954Z,19.4
2022-10-19T10:01:07.116Z,19.6
2022-10-19T10:02:10.858Z,19.6
2022-10-19T10:03:14.949Z,19.8
2022-10-19T10:04:18.190Z,19.8
2022-10-19T10:05:21.641Z,19.8
2022-10-19T10:06:24.713Z,20
2022-10-19T10:07:27.512Z,20.2
2022-10-19T10:08:31.302Z,20.2
2022-10-19T10:09:34.569Z,20.4
2022-10-19T10:11:45.870Z,20.7
2022-10-19T10:15:08.752Z,21.1
2022-10-19T10:17:21.483Z,21.1
2022-10-19T10:18:25.520Z,20.8
2022-10-19T10:19:28.703Z,20.9
2022-10-19T10:20:31.870Z,20.9
2022-10-19T10:21:35.057Z,21
2022-10-19T10:22:39.455Z,21.1
2022-10-19T10:23:42.447Z,21.2
2022-10-19T10:24:45.542Z,21.4
2022-10-19T10:25:48.642Z,21.5
2022-10-19T10:26:51.993Z,21.5
2022-10-19T10:27:55.187Z,21.7
2022-10-19T10:29:03.197Z,21.8
2022-10-19T10:30:06.943Z,21.8
2022-10-19T10:31:10.682Z,21.7
2022-10-19T10:32:14.413Z,21.7
2022-10-19T10:33:47.042Z,21.5
2022-10-19T10:35:02.236Z,21.2
2022-10-19T10:36:05.382Z,21.4
2022-10-19T10:37:09.256Z,21.5
2022-10-19T10:38:12.186Z,21.6
2022-10-19T10:39:15.671Z,21.4
2022-10-19T10:40:25.014Z,21.4
2022-10-19T10:41:28.517Z,21.5
2022-10-19T10:42:32.414Z,21.5
2022-10-19T10:43:35.194Z,21.6
2022-10-19T10:44:38.083Z,21.7
2022-10-19T10:45:41.543Z,21.6
2022-10-19T10:46:44.825Z,21.6
2022-10-19T10:47:48.573Z,21.7
2022-10-19T10:48:55.007Z,21.8
2022-10-19T10:49:58.662Z,22
2022-10-19T10:51:01.271Z,22.2
2022-10-19T10:52:03.989Z,22.3
2022-10-19T10:53:07.172Z,22.4
2022-10-19T10:54:10.562Z,22.4
2022-10-19T10:55:13.438Z,22.4
2022-10-19T10:56:15.877Z,22.5
2022-10-19T10:57:19.552Z,22.5
2022-10-19T10:58:31.251Z,22.6
2022-10-19T10:59:34.126Z,22.6
2022-10-19T11:00:37.126Z,22.7
2022-10-19T11:01:40.926Z,22.7
2022-10-19T11:02:44.960Z,22.7
2022-10-19T11:03:48.333Z,22.7
2022-10-19T11:04:54.106Z,22.7
2022-10-19T11:05:57.180Z,22.7
2022-10-19T11:06:59.777Z,22.8
2022-10-19T11:08:03.126Z,22.9
2022-10-19T11:09:06.873Z,22.9
2022-10-19T11:10:09.407Z,22.9
2022-10-19T11:11:12.338Z,22.8
2022-10-19T11:12:15.959Z,22.8
2022-10-19T11:13:19.053Z,22.8
2022-10-19T11:14:21.870Z,22.8
2022-10-19T11:15:25.037Z,22.9
2022-10-19T11:16:28.607Z,22.9
2022-10-19T11:17:33.316Z,22.8
2022-10-19T11:18:37.287Z,22.9
2022-10-19T11:19:40.749Z,22.9
2022-10-19T11:20:43.758Z,22.9
2022-10-19T11:21:46.867Z,22.8
2022-10-19T11:22:50.606Z,22.8
2022-10-19T11:23:53.676Z,22.8
2022-10-19T11:24:57.099Z,22.8
2022-10-19T11:26:00.180Z,22.6
2022-10-19T11:27:04.150Z,22.6
2022-10-19T11:28:06.863Z,22.6
2022-10-19T11:29:10.229Z,22.6
2022-10-19T11:30:13.830Z,22.6
2022-10-19T11:31:17.401Z,22.5
2022-10-19T11:32:21.137Z,22.5
2022-10-19T11:33:23.845Z,22.5
2022-10-19T11:34:28.158Z,22.5
2022-10-19T11:35:31.536Z,22.4
2022-10-19T11:36:34.520Z,22.5
2022-10-19T11:38:24.198Z,22.6
2022-10-19T11:39:33.335Z,22.6
2022-10-19T11:40:36.053Z,22.6
2022-10-19T11:41:39.153Z,22.5
2022-10-19T11:42:42.684Z,22.5
2022-10-19T11:43:46.229Z,22.5
2022-10-19T11:44:49.682Z,22.5
2022-10-19T11:45:53.198Z,22.6
2022-10-19T11:46:56.313Z,22.6
2022-10-19T11:47:59.338Z,22.5
2022-10-19T11:49:01.792Z,22.5
2022-10-19T11:50:05.836Z,22.3
2022-10-19T11:51:23.714Z,22.1
2022-10-19T11:52:27.387Z,22
2022-10-19T11:53:30.256Z,22
2022-10-19T11:54:33.062Z,22
2022-10-19T11:55:36.781Z,22
2022-10-19T11:57:12.269Z,21.9
2022-10-19T11:58:15.690Z,22
2022-10-19T11:59:18.503Z,21.9
2022-10-19T12:00:41.997Z,21.9
2022-10-19T12:01:45.684Z,21.7
2022-10-19T12:02:49.151Z,21.6
2022-10-19T12:03:52.230Z,21.5
2022-10-19T12:04:54.897Z,21.4
2022-10-19T12:05:58.981Z,21.3
2022-10-19T12:07:02.617Z,21.3
2022-10-19T12:08:06.092Z,21.3
2022-10-19T12:09:09.462Z,21.3
2022-10-19T12:10:12.736Z,21.2
2022-10-19T12:11:14.966Z,21.1
2022-10-19T12:12:18.374Z,21
2022-10-19T12:13:22.376Z,21.1
2022-10-19T12:14:25.166Z,21.1
2022-10-19T12:15:28.609Z,21.3
2022-10-19T12:16:32.489Z,21.3
2022-10-19T12:17:38.202Z,21.1
2022-10-19T12:18:40.839Z,21
2022-10-19T12:19:44.015Z,21
2022-10-19T12:20:46.799Z,21
2022-10-19T12:21:50.424Z,20.9
2022-10-19T12:22:54.181Z,20.9
2022-10-19T12:23:57.270Z,20.7
2022-10-19T12:25:00.071Z,20.8
2022-10-19T12:26:03.487Z,20.7
2022-10-19T12:27:06.233Z,20.5
2022-10-19T12:28:09.302Z,20.5
2022-10-19T12:29:12.403Z,20.4
2022-10-19T12:30:15.549Z,20.4
2022-10-19T12:31:18.418Z,20.4
2022-10-19T12:32:21.862Z,20.4
2022-10-19T12:33:24.380Z,20.2
2022-10-19T12:34:27.835Z,20
2022-10-19T12:35:30.633Z,19.9
2022-10-19T12:36:33.699Z,19.9
2022-10-19T12:37:38.692Z,19.9
2022-10-19T12:39:00.836Z,19.9
2022-10-19T12:40:04.200Z,19.8
2022-10-19T12:41:07.678Z,19.7
2022-10-19T12:42:10.930Z,19.6
2022-10-19T12:43:14.581Z,19.6
2022-10-19T12:44:18.587Z,19.5
2022-10-19T12:45:21.197Z,19.5
2022-10-19T12:46:24.654Z,19.5
2022-10-19T12:47:27.450Z,19.4
2022-10-19T12:48:30.607Z,19.4
2022-10-19T12:49:33.419Z,19.4
2022-10-19T12:50:39.803Z,19.3
2022-10-19T12:51:43.427Z,19.3
2022-10-19T12:52:46.909Z,19.2
2022-10-19T12:53:50.496Z,19.2
2022-10-19T12:54:53.652Z,19.2
2022-10-19T12:55:56.809Z,19.1
2022-10-19T12:57:00.462Z,19.1
2022-10-19T12:58:03.332Z,19.1
2022-10-19T12:59:06.467Z,19.1
2022-10-19T13:00:09.441Z,19.1
2022-10-19T13:01:13.047Z,19.1
2022-10-19T13:02:16.240Z,19.1
2022-10-19T13:03:19.396Z,19.1
2022-10-19T13:04:22.913Z,19
2022-10-19T13:05:26.643Z,19
2022-10-19T13:06:29.801Z,19
2022-10-19T13:07:35.140Z,18.9
2022-10-19T13:08:38.794Z,18.9
2022-10-19T13:09:42.495Z,18.8
2022-10-19T13:10:45.895Z,18.8
2022-10-19T13:11:49.568Z,18.8
2022-10-19T13:12:52.297Z,18.8
2022-10-19T13:13:55.458Z,18.8
2022-10-19T13:14:58.535Z,18.8
2022-10-19T13:16:01.600Z,18.8
2022-10-19T13:17:04.782Z,18.8
2022-10-19T13:18:07.850Z,18.8
2022-10-19T13:19:11.272Z,18.7
2022-10-19T13:20:14.763Z,18.8
2022-10-19T13:21:17.613Z,18.7
2022-10-19T13:22:20.746Z,18.7
2022-10-19T13:23:24.079Z,18.7
2022-10-19T13:24:28.393Z,18.6
2022-10-19T13:25:32.395Z,18.6
2022-10-19T13:26:35.856Z,18.7
2022-10-19T13:27:41.141Z,18.6
2022-10-19T13:28:44.641Z,18.6
2022-10-19T13:29:48.437Z,18.6
2022-10-19T13:30:51.928Z,18.6
2022-10-19T13:31:54.986Z,18.5
2022-10-19T13:32:57.970Z,18.6
2022-10-19T13:34:00.763Z,18.6
2022-10-19T13:35:03.203Z,18.6
2022-10-19T13:36:06.637Z,18.7
2022-10-19T13:37:08.875Z,18.8
2022-10-19T13:38:11.972Z,18.9
2022-10-19T13:39:15.067Z,19.1
2022-10-19T13:40:26.350Z,19.2
2022-10-19T13:41:29.396Z,19
2022-10-19T13:42:34.047Z,18.9
2022-10-19T13:43:37.415Z,18.8
2022-10-19T13:44:40.850Z,18.7
2022-10-19T13:45:45.853Z,18.6
2022-10-19T13:46:48.663Z,18.5
2022-10-19T13:47:52.113Z,18.4
2022-10-19T13:48:54.986Z,18.3
2022-10-19T13:49:58.062Z,18.2
2022-10-19T13:51:01.332Z,18.2
2022-10-19T13:52:04.533Z,18.1
2022-10-19T13:53:07.994Z,18
2022-10-19T13:54:11.147Z,17.8
2022-10-19T13:55:14.307Z,17.7
2022-10-19T13:56:17.585Z,17.6
2022-10-19T13:57:20.756Z,17.5
2022-10-19T13:58:23.742Z,17.4
2022-10-19T13:59:28.464Z,17.2
2022-10-19T14:00:32.570Z,17.1
2022-10-19T14:01:35.917Z,17
2022-10-19T14:02:38.572Z,16.9
2022-10-19T14:03:41.997Z,16.8
2022-10-19T14:04:45.983Z,16.7
2022-10-19T14:05:48.842Z,16.6
2022-10-19T14:06:51.824Z,16.5
2022-10-19T14:07:55.274Z,16.4
2022-10-19T14:08:59.467Z,16.2
2022-10-19T14:10:02.774Z,16.2
2022-10-19T14:11:06.121Z,16.1
2022-10-19T14:12:10.352Z,15.9
2022-10-19T14:13:14.070Z,15.8
2022-10-19T14:14:16.509Z,15.8
2022-10-19T14:15:18.956Z,15.7
2022-10-19T14:16:22.106Z,15.7
2022-10-19T14:17:24.901Z,15.6
2022-10-19T14:18:27.760Z,15.5
2022-10-19T14:19:30.954Z,15.5
2022-10-19T14:20:34.417Z,15.4
2022-10-19T14:21:37.762Z,15.4
2022-10-19T14:22:40.564Z,15.3